Time;durP1;ratioP1;P1;durP2;ratioP2;P2;SDS_P1;SDS_P2;PMS_P1;PMS_P2;Temp;Humidity;BMP_temperature;BMP_pressure;BME280_temperature;BME280_humidity;BME280_pressure;Samples;Min_cycle;Max_cycle;Signal;HPM_P1;HPM_P2
2024/04/16 00:01:01;;;;;;;12.68;0.90;;;6.60;95.90;;;;;;5449523;26;20260;-85
2024/04/16 00:03:26;;;;;;;13.47;1.87;;;6.60;95.50;;;;;;5447580;26;20215;-84
2024/04/16 00:05:52;;;;;;;13.50;1.00;;;6.60;94.50;;;;;;5449198;26;20219;-86
2024/04/16 00:08:18;;;;;;;12.80;1.10;;;6.70;91.20;;;;;;5412151;26;20207;-86
2024/04/16 00:10:43;;;;;;;14.27;1.00;;;6.60;92.60;;;;;;5448975;26;20269;-85
2024/04/16 00:13:09;;;;;;;13.30;1.10;;;6.50;93.60;;;;;;5412658;26;20656;-85
2024/04/16 00:15:34;;;;;;;15.10;1.23;;;6.50;93.70;;;;;;5412305;26;20210;-86
2024/04/16 00:18:00;;;;;;;20.73;2.03;;;6.60;94.80;;;;;;5412378;26;20322;-86
2024/04/16 00:20:26;;;;;;;13.10;1.33;;;6.70;94.20;;;;;;5448755;26;20290;-84
2024/04/16 00:22:51;;;;;;;16.90;1.50;;;6.60;90.80;;;;;;5412031;26;20628;-84
2024/04/16 00:25:17;;;;;;;13.70;1.30;;;6.70;91.70;;;;;;5412239;26;20542;-86
2024/04/16 00:27:43;;;;;;;15.13;1.30;;;6.70;93.00;;;;;;5412160;26;20210;-85
2024/04/16 00:30:09;;;;;;;14.80;1.30;;;6.70;92.20;;;;;;5449078;26;20740;-85
2024/04/16 00:32:34;;;;;;;13.10;1.20;;;6.80;89.50;;;;;;5412371;26;20316;-85
2024/04/16 00:35:00;;;;;;;14.80;1.17;;;6.80;91.00;;;;;;5412719;26;21023;-85
2024/04/16 00:37:25;;;;;;;14.90;1.10;;;6.90;89.80;;;;;;5412143;26;20771;-84
2024/04/16 00:39:51;;;;;;;15.23;1.20;;;6.80;84.90;;;;;;5412175;26;20231;-85
2024/04/16 00:42:17;;;;;;;12.83;1.27;;;6.70;83.10;;;;;;5448551;26;20245;-85
2024/04/16 00:44:42;;;;;;;13.77;1.07;;;6.70;86.00;;;;;;5412084;26;20257;-85
2024/04/16 00:47:10;;;;;;;12.77;1.00;;;6.80;81.70;;;;;;5448076;26;20300;-84
2024/04/16 00:49:36;;;;;;;13.88;1.00;;;6.80;74.80;;;;;;5411315;26;20254;-85
2024/04/16 00:52:03;;;;;;;13.30;1.10;;;6.80;80.30;;;;;;5411961;26;20258;-85
2024/04/16 00:54:29;;;;;;;14.50;1.35;;;6.90;76.80;;;;;;5411610;26;20268;-86
2024/04/16 00:56:55;;;;;;;15.30;1.10;;;6.90;76.40;;;;;;5449292;26;20280;-85
2024/04/16 00:59:26;;;;;;;15.02;2.53;;;6.90;76.00;;;;;;5411845;26;20725;-85
2024/04/16 01:01:55;;;;;;;15.50;1.10;;;6.80;64.20;;;;;;5411684;26;20215;-84
2024/04/16 01:04:25;;;;;;;14.68;1.42;;;6.80;63.50;;;;;;5412176;26;20212;-85
2024/04/16 01:06:51;;;;;;;19.83;1.20;;;6.90;70.60;;;;;;5411612;26;20209;-84
2024/04/16 01:09:18;;;;;;;13.15;1.55;;;6.90;70.40;;;;;;5411951;26;20254;-85
2024/04/16 01:11:47;;;;;;;14.95;1.10;;;7.00;69.30;;;;;;5448210;26;20256;-84
2024/04/16 01:14:13;;;;;;;13.90;1.25;;;6.90;76.80;;;;;;5411036;26;20604;-85
2024/04/16 01:16:39;;;;;;;14.50;1.40;;;7.00;79.50;;;;;;5410996;26;20206;-85
2024/04/16 01:19:08;;;;;;;14.30;1.87;;;7.00;81.20;;;;;;5411235;26;20207;-84
2024/04/16 01:21:34;;;;;;;14.38;1.20;;;7.00;69.50;;;;;;5447908;26;20637;-85
2024/04/16 01:24:00;;;;;;;18.17;1.57;;;6.90;70.90;;;;;;5448073;26;20216;-84
2024/04/16 01:26:26;;;;;;;16.03;1.07;;;6.80;73.20;;;;;;5411074;26;20214;-84
2024/04/16 01:28:51;;;;;;;15.40;1.67;;;6.80;82.10;;;;;;5447351;26;20705;-85
2024/04/16 01:31:17;;;;;;;13.50;1.67;;;6.80;79.60;;;;;;5447142;26;20334;-85
2024/04/16 01:33:44;;;;;;;15.00;1.20;;;6.90;77.70;;;;;;5447261;26;20219;-84
2024/04/16 01:36:10;;;;;;;13.70;1.30;;;6.80;71.90;;;;;;5411316;26;20441;-85
2024/04/16 01:38:35;;;;;;;16.60;1.53;;;6.80;78.40;;;;;;5411434;26;20210;-84
2024/04/16 01:41:05;;;;;;;13.10;1.10;;;6.70;86.90;;;;;;5410349;26;20265;-85
2024/04/16 01:43:30;;;;;;;13.40;1.60;;;6.70;86.50;;;;;;5410605;26;20543;-85
2024/04/16 01:45:56;;;;;;;14.73;1.30;;;6.80;84.60;;;;;;5446935;26;20245;-84
2024/04/16 01:48:22;;;;;;;13.03;1.63;;;6.80;80.80;;;;;;5410864;26;20253;-84
2024/04/16 01:50:47;;;;;;;15.00;1.80;;;6.70;84.20;;;;;;5411373;26;20227;-86
2024/04/16 01:53:13;;;;;;;15.20;1.40;;;6.70;83.70;;;;;;5447446;26;20262;-86
2024/04/16 01:55:39;;;;;;;16.70;1.63;;;6.70;80.70;;;;;;5410800;26;20258;-84
2024/04/16 01:58:05;;;;;;;13.20;1.60;;;6.60;82.50;;;;;;5447465;26;20444;-85
2024/04/16 02:00:31;;;;;;;15.48;1.63;;;6.60;74.50;;;;;;5410976;26;20235;-84
2024/04/16 02:02:59;;;;;;;14.63;1.77;;;6.70;68.20;;;;;;5410830;26;20318;-85
2024/04/16 02:05:25;;;;;;;15.15;1.45;;;6.60;74.10;;;;;;5410275;26;20212;-85
2024/04/16 02:07:51;;;;;;;13.40;1.50;;;6.70;71.30;;;;;;5447575;26;20215;-84
2024/04/16 02:10:17;;;;;;;15.13;1.33;;;6.70;68.20;;;;;;5411382;26;20247;-85
2024/04/16 02:12:43;;;;;;;12.93;1.10;;;6.60;74.30;;;;;;5409850;26;20446;-83
2024/04/16 02:15:08;;;;;;;15.43;1.23;;;6.70;67.70;;;;;;5446722;26;20607;-85
2024/04/16 02:17:34;;;;;;;12.67;1.20;;;6.70;66.50;;;;;;5446684;26;20308;-83
2024/04/16 02:19:59;;;;;;;19.70;2.33;;;6.60;66.50;;;;;;5410078;26;20223;-84
2024/04/16 02:22:25;;;;;;;15.53;1.73;;;6.60;61.80;;;;;;5410244;26;20323;-84
2024/04/16 02:24:51;;;;;;;15.60;1.50;;;6.60;69.90;;;;;;5409935;26;20292;-85
2024/04/16 02:27:16;;;;;;;13.40;1.40;;;6.60;65.50;;;;;;5412161;26;20559;-85
2024/04/16 02:29:42;;;;;;;16.43;1.40;;;6.50;64.20;;;;;;5413468;26;20560;-84
2024/04/16 02:32:07;;;;;;;16.03;1.37;;;6.50;63.00;;;;;;5413876;26;20211;-85
2024/04/16 02:34:33;;;;;;;16.33;1.20;;;6.50;65.70;;;;;;5413817;26;20211;-85
2024/04/16 02:36:59;;;;;;;16.57;1.63;;;6.50;53.10;;;;;;5413514;26;20220;-85
2024/04/16 02:39:24;;;;;;;15.80;1.10;;;6.50;57.10;;;;;;5413600;26;20596;-85
2024/04/16 02:41:51;;;;;;;13.63;1.37;;;6.60;55.90;;;;;;5413643;26;20743;-85
2024/04/16 02:44:17;;;;;;;18.25;1.83;;;6.60;47.90;;;;;;5412863;26;20281;-84
2024/04/16 02:46:42;;;;;;;16.40;1.30;;;6.50;54.10;;;;;;5412680;26;20696;-84
2024/04/16 02:49:08;;;;;;;13.40;1.47;;;6.50;53.60;;;;;;5413679;26;20203;-83
2024/04/16 02:51:34;;;;;;;15.70;1.60;;;6.50;54.30;;;;;;5413646;26;20241;-84
2024/04/16 02:53:59;;;;;;;15.20;1.30;;;6.50;56.70;;;;;;5413341;26;20207;-84
2024/04/16 02:56:25;;;;;;;15.20;1.60;;;6.50;51.90;;;;;;5450056;26;20223;-84
2024/04/16 02:58:51;;;;;;;22.83;1.90;;;6.50;52.30;;;;;;5413259;26;20261;-85
2024/04/16 03:01:16;;;;;;;15.37;1.60;;;6.50;59.00;;;;;;5413523;26;20218;-85
2024/04/16 03:03:42;;;;;;;15.90;1.80;;;6.40;64.50;;;;;;5413120;26;20219;-85
2024/04/16 03:06:07;;;;;;;15.93;1.73;;;6.40;64.60;;;;;;5413084;26;20300;-84
2024/04/16 03:08:33;;;;;;;17.20;2.07;;;6.40;61.20;;;;;;5413111;26;20230;-85
2024/04/16 03:11:00;;;;;;;17.97;1.50;;;6.50;65.80;;;;;;5412903;26;20262;-86
2024/04/16 03:13:25;;;;;;;15.82;1.23;;;6.50;63.20;;;;;;5449739;26;20207;-85
2024/04/16 03:15:51;;;;;;;19.37;1.80;;;6.50;65.50;;;;;;5449868;26;20214;-85
2024/04/16 03:18:17;;;;;;;18.33;1.90;;;6.50;69.30;;;;;;5412840;26;20789;-86
2024/04/16 03:20:43;;;;;;;16.67;2.10;;;6.60;66.50;;;;;;5412681;26;20226;-86
2024/04/16 03:23:08;;;;;;;12.97;1.30;;;6.60;71.70;;;;;;5413059;26;20954;-84
2024/04/16 03:25:45;;;;;;;14.60;1.20;;;6.60;76.00;;;;;;5413394;26;20210;-85
2024/04/16 03:28:11;;;;;;;13.65;1.60;;;6.70;81.50;;;;;;5449533;26;20231;-84
2024/04/16 03:30:36;;;;;;;16.07;1.60;;;6.70;81.20;;;;;;5412453;26;20222;-82
2024/04/16 03:33:02;;;;;;;13.33;1.50;;;6.70;85.40;;;;;;5449002;26;20215;-85
2024/04/16 03:35:28;;;;;;;14.10;1.40;;;6.70;89.50;;;;;;5412374;26;20262;-84
2024/04/16 03:37:53;;;;;;;14.90;1.40;;;6.70;89.90;;;;;;5449044;26;20218;-84
2024/04/16 03:40:19;;;;;;;17.17;2.20;;;6.70;92.30;;;;;;5412548;26;20246;-83
2024/04/16 03:42:45;;;;;;;14.70;1.63;;;6.70;90.10;;;;;;5412198;26;20210;-84
2024/04/16 03:45:11;;;;;;;15.83;2.53;;;6.70;91.80;;;;;;5412686;26;20222;-84
2024/04/16 03:47:36;;;;;;;15.00;2.20;;;6.70;93.30;;;;;;5449227;26;20215;-85
2024/04/16 03:50:02;;;;;;;15.40;1.50;;;6.80;95.50;;;;;;5449273;26;20234;-85
2024/04/16 03:52:29;;;;;;;17.93;1.93;;;6.70;97.60;;;;;;5412434;26;20249;-84
2024/04/16 03:54:55;;;;;;;15.18;1.55;;;6.80;96.50;;;;;;5449665;26;20677;-84
2024/04/16 03:57:21;;;;;;;14.80;1.70;;;6.80;97.50;;;;;;5413210;26;20208;-85
2024/04/16 04:02:31;;;;;;;18.98;1.65;;;6.80;99.90;;;;;;5379125;26;20250;-87
2024/04/16 04:04:57;;;;;;;16.55;2.45;;;6.80;99.90;;;;;;5344988;26;20217;-87
2024/04/16 04:07:22;;;;;;;19.13;2.27;;;6.70;99.90;;;;;;5345121;26;20234;-86
2024/04/16 04:09:48;;;;;;;13.47;1.50;;;6.60;99.90;;;;;;5345030;26;20272;-87
2024/04/16 04:12:14;;;;;;;14.07;1.63;;;6.60;99.90;;;;;;5345543;26;20216;-88
2024/04/16 04:14:40;;;;;;;17.40;3.20;;;6.60;99.90;;;;;;5376424;26;20442;-87
2024/04/16 04:17:06;;;;;;;15.00;1.90;;;6.60;99.90;;;;;;5376318;26;20255;-88
2024/04/16 04:19:31;;;;;;;16.00;1.70;;;6.70;99.90;;;;;;5376307;26;20207;-88
2024/04/16 04:21:58;;;;;;;15.23;1.80;;;6.70;99.90;;;;;;5376853;26;20208;-87
2024/04/16 04:24:23;;;;;;;21.85;2.67;;;6.70;99.90;;;;;;5345940;26;20216;-87
2024/04/16 04:26:49;;;;;;;15.43;1.70;;;6.70;99.90;;;;;;5345386;26;20242;-85
2024/04/16 04:29:15;;;;;;;14.93;1.53;;;6.70;99.90;;;;;;5347054;26;20220;-87
2024/04/16 04:31:40;;;;;;;16.33;1.87;;;6.70;99.90;;;;;;5377497;26;20224;-87
2024/04/16 04:34:06;;;;;;;13.93;1.63;;;6.70;99.90;;;;;;5346265;26;20253;-87
2024/04/16 04:36:33;;;;;;;14.20;1.30;;;6.70;99.90;;;;;;5346623;26;20224;-88
2024/04/16 04:38:58;;;;;;;15.80;1.80;;;6.70;99.90;;;;;;5377340;26;20243;-87
2024/04/16 04:41:24;;;;;;;15.30;1.67;;;6.70;99.90;;;;;;5346378;26;20471;-88
2024/04/16 04:43:51;;;;;;;15.07;1.30;;;6.70;99.90;;;;;;5377083;26;20212;-87
2024/04/16 04:46:17;;;;;;;14.50;1.30;;;6.60;99.90;;;;;;5376943;26;20743;-87
2024/04/16 04:48:43;;;;;;;15.15;1.73;;;6.60;99.90;;;;;;5345914;26;20219;-87
2024/04/16 04:51:09;;;;;;;16.70;1.45;;;6.60;99.90;;;;;;5377044;26;20250;-87
2024/04/16 04:53:35;;;;;;;13.93;1.40;;;6.70;99.90;;;;;;5346930;26;20549;-87
2024/04/16 04:56:01;;;;;;;16.07;1.97;;;6.60;99.90;;;;;;5346602;26;20490;-87
2024/04/16 04:58:27;;;;;;;12.90;1.20;;;6.60;99.90;;;;;;5377584;26;20560;-87
2024/04/16 05:00:53;;;;;;;16.30;1.50;;;6.60;99.90;;;;;;5346472;26;20228;-87
2024/04/16 05:03:18;;;;;;;16.80;2.30;;;6.60;99.90;;;;;;5346747;26;20442;-87
2024/04/16 05:05:47;;;;;;;14.37;1.90;;;6.60;99.90;;;;;;5377556;26;20795;-88
2024/04/16 05:08:13;;;;;;;21.38;2.90;;;6.60;99.90;;;;;;5377847;26;20209;-87
2024/04/16 05:10:39;;;;;;;15.18;2.53;;;6.60;99.90;;;;;;5377863;26;20313;-87
2024/04/16 05:13:05;;;;;;;17.55;3.05;;;6.50;99.90;;;;;;5346607;26;20719;-87
2024/04/16 05:15:30;;;;;;;14.93;2.30;;;6.50;99.90;;;;;;5346796;26;20220;-86
2024/04/16 05:17:56;;;;;;;15.03;1.80;;;6.40;99.90;;;;;;5347662;26;20223;-87
2024/04/16 05:20:25;;;;;;;13.10;1.43;;;6.50;99.90;;;;;;5377920;26;20219;-87
2024/04/16 05:22:54;;;;;;;13.30;1.50;;;6.50;99.90;;;;;;5346747;26;20485;-88
2024/04/16 05:25:19;;;;;;;13.57;1.73;;;6.50;99.90;;;;;;5346858;26;20223;-87
2024/04/16 05:27:45;;;;;;;13.03;1.40;;;6.60;99.90;;;;;;5376898;26;20254;-87
2024/04/16 05:30:11;;;;;;;15.63;1.53;;;6.80;99.90;;;;;;5377297;26;20223;-86
2024/04/16 05:32:37;;;;;;;14.00;1.50;;;6.80;99.90;;;;;;5376107;26;20215;-86
2024/04/16 05:35:02;;;;;;;13.20;1.67;;;6.80;99.90;;;;;;5376145;26;20220;-86
2024/04/16 05:37:28;;;;;;;16.87;2.30;;;6.90;99.90;;;;;;5375948;26;20486;-86
2024/04/16 05:39:54;;;;;;;14.20;1.97;;;6.80;99.90;;;;;;5376288;26;20474;-86
2024/04/16 05:42:19;;;;;;;13.90;1.83;;;6.90;99.90;;;;;;5345534;26;20220;-85
2024/04/16 05:44:45;;;;;;;13.93;2.43;;;6.80;99.90;;;;;;5345440;26;20238;-86
2024/04/16 05:47:10;;;;;;;13.90;1.60;;;6.90;99.90;;;;;;5377191;26;20646;-86
2024/04/16 05:49:36;;;;;;;14.23;2.20;;;7.00;99.90;;;;;;5376685;26;20766;-87
2024/04/16 05:52:02;;;;;;;16.77;1.70;;;7.00;99.90;;;;;;5377097;26;20209;-86
2024/04/16 05:54:29;;;;;;;16.67;2.45;;;7.20;99.90;;;;;;5376541;26;20220;-86
2024/04/16 05:56:55;;;;;;;17.42;2.60;;;7.30;99.90;;;;;;5345620;26;20219;-86
2024/04/16 05:59:24;;;;;;;14.77;1.97;;;7.40;99.90;;;;;;5376919;26;20260;-86
2024/04/16 06:01:49;;;;;;;14.35;2.30;;;7.40;99.90;;;;;;5377645;26;20302;-86
2024/04/16 06:04:15;;;;;;;13.60;1.70;;;7.40;99.90;;;;;;5380085;26;20219;-86
2024/04/16 06:06:40;;;;;;;15.07;1.90;;;7.60;99.90;;;;;;5380159;26;20551;-86
2024/04/16 06:09:06;;;;;;;13.97;1.40;;;7.60;99.90;;;;;;5378457;26;20684;-85
2024/04/16 06:11:32;;;;;;;14.10;1.80;;;7.40;99.90;;;;;;5378095;26;20235;-86
2024/04/16 06:13:58;;;;;;;14.90;1.80;;;7.40;99.90;;;;;;5380556;26;20207;-86
2024/04/16 06:16:25;;;;;;;15.60;1.80;;;7.40;99.90;;;;;;5379849;26;20682;-86
2024/04/16 06:18:51;;;;;;;16.33;1.80;;;7.30;99.90;;;;;;5379567;26;20242;-86
2024/04/16 06:21:17;;;;;;;14.90;1.75;;;7.30;99.90;;;;;;5380008;26;20220;-86
2024/04/16 06:23:43;;;;;;;14.43;1.87;;;7.40;99.90;;;;;;5379826;26;20796;-86
2024/04/16 06:26:09;;;;;;;13.37;1.57;;;7.40;99.90;;;;;;5377727;26;20244;-85
2024/04/16 06:28:35;;;;;;;20.25;2.65;;;7.40;99.90;;;;;;5380303;26;20266;-86
2024/04/16 06:31:00;;;;;;;17.23;1.90;;;7.40;99.90;;;;;;5377871;26;20592;-86
2024/04/16 06:33:31;;;;;;;16.40;2.00;;;7.30;99.90;;;;;;5377813;26;20217;-86
2024/04/16 06:35:57;;;;;;;14.85;1.75;;;7.30;99.90;;;;;;5379480;26;20540;-86
2024/04/16 06:38:24;;;;;;;15.00;2.23;;;7.40;99.90;;;;;;5377420;26;20221;-86
2024/04/16 06:40:50;;;;;;;24.13;3.75;;;7.40;99.90;;;;;;5377594;26;20278;-86
2024/04/16 06:43:16;;;;;;;15.60;2.50;;;7.40;99.90;;;;;;5378414;26;20588;-85
2024/04/16 06:45:42;;;;;;;19.97;3.13;;;7.40;99.90;;;;;;5376572;26;20219;-86
2024/04/16 06:48:07;;;;;;;24.57;3.60;;;7.40;99.90;;;;;;5377314;26;20245;-86
2024/04/16 06:50:33;;;;;;;16.50;2.43;;;7.40;99.90;;;;;;5378732;26;20219;-86
2024/04/16 06:52:59;;;;;;;13.40;2.00;;;7.50;99.90;;;;;;5378984;26;20208;-86
2024/04/16 06:55:25;;;;;;;14.07;2.20;;;7.40;99.90;;;;;;5378596;26;20275;-86
2024/04/16 06:57:51;;;;;;;19.60;2.33;;;7.30;99.90;;;;;;5377579;26;20264;-86
2024/04/16 07:00:16;;;;;;;16.57;2.37;;;7.20;99.90;;;;;;5379704;26;20312;-86
2024/04/16 07:02:42;;;;;;;16.87;3.20;;;7.10;99.90;;;;;;5379610;26;20331;-86
2024/04/16 07:05:09;;;;;;;16.07;2.00;;;7.10;99.90;;;;;;5379171;26;20588;-87
2024/04/16 07:07:36;;;;;;;17.67;2.35;;;7.10;99.90;;;;;;5376976;26;20216;-87
2024/04/16 07:10:02;;;;;;;13.70;1.83;;;7.10;99.90;;;;;;5376538;26;20229;-87
2024/04/16 07:12:28;;;;;;;13.40;1.77;;;7.10;99.90;;;;;;5378267;26;20212;-86
2024/04/16 07:14:54;;;;;;;14.60;1.50;;;7.00;99.90;;;;;;5378414;26;20254;-85
2024/04/16 07:17:20;;;;;;;14.40;1.97;;;6.90;99.90;;;;;;5377049;26;20220;-85
2024/04/16 07:19:48;;;;;;;15.60;2.58;;;6.90;99.90;;;;;;5378499;26;20216;-86
2024/04/16 07:22:13;;;;;;;12.75;1.33;;;6.80;99.90;;;;;;5376584;26;20239;-85
2024/04/16 07:24:39;;;;;;;13.40;1.10;;;6.80;99.90;;;;;;5376311;26;20216;-87
2024/04/16 07:27:05;;;;;;;12.90;1.37;;;6.90;99.90;;;;;;5377644;26;20264;-84
2024/04/16 07:29:30;;;;;;;13.50;1.50;;;6.90;99.90;;;;;;5375442;26;20220;-87
2024/04/16 07:31:56;;;;;;;13.27;1.57;;;6.80;99.90;;;;;;5378333;26;20727;-87
2024/04/16 07:34:22;;;;;;;15.23;1.13;;;6.80;99.90;;;;;;5378100;26;20208;-87
2024/04/16 07:36:48;;;;;;;12.52;1.10;;;6.90;99.90;;;;;;5377707;26;20289;-86
2024/04/16 07:39:14;;;;;;;12.73;1.17;;;6.90;99.90;;;;;;5375382;26;20215;-87
2024/04/16 07:41:39;;;;;;;12.27;1.00;;;6.80;99.90;;;;;;5376956;26;20242;-88
2024/04/16 07:44:05;;;;;;;12.47;1.10;;;6.90;99.90;;;;;;5375917;26;20689;-86
2024/04/16 07:46:33;;;;;;;13.27;1.37;;;6.90;99.90;;;;;;5378040;26;20212;-87
2024/04/16 07:48:59;;;;;;;15.18;1.35;;;6.90;99.90;;;;;;5375912;26;20546;-85
2024/04/16 07:51:27;;;;;;;12.40;0.98;;;6.90;99.90;;;;;;5375972;26;20224;-87
2024/04/16 07:53:53;;;;;;;15.30;1.30;;;6.90;99.90;;;;;;5377209;26;20208;-87
2024/04/16 07:56:19;;;;;;;12.77;1.30;;;6.80;99.90;;;;;;5377567;26;20212;-84
2024/04/16 07:58:44;;;;;;;12.57;1.07;;;6.70;99.90;;;;;;5377504;26;20215;-86
2024/04/16 08:01:12;;;;;;;12.27;1.00;;;6.60;99.90;;;;;;5377539;26;20255;-86
2024/04/16 08:03:37;;;;;;;12.50;1.05;;;6.60;99.90;;;;;;5378030;26;20213;-87
2024/04/16 08:06:07;;;;;;;12.80;1.20;;;6.70;99.90;;;;;;5377961;26;20255;-86
2024/04/16 08:08:32;;;;;;;12.93;1.05;;;6.80;99.90;;;;;;5377869;26;20288;-86
2024/04/16 08:11:18;;;;;;;13.30;1.13;;;6.80;99.90;;;;;;5375553;26;20549;-86
2024/04/16 08:13:44;;;;;;;12.18;1.00;;;6.90;99.90;;;;;;5377004;26;20219;-86
2024/04/16 08:16:09;;;;;;;18.47;1.73;;;7.00;99.90;;;;;;5377783;26;20212;-87
2024/04/16 08:18:35;;;;;;;12.63;1.27;;;7.10;99.90;;;;;;5377699;26;20243;-85
2024/04/16 08:21:01;;;;;;;12.37;1.17;;;7.10;99.90;;;;;;5377757;26;20220;-85
2024/04/16 08:23:26;;;;;;;12.83;1.90;;;7.20;99.90;;;;;;5375143;26;20223;-86
2024/04/16 08:25:59;;;;;;;13.17;1.50;;;7.30;99.90;;;;;;5374837;26;20238;-87
2024/04/16 08:28:25;;;;;;;19.55;1.65;;;7.30;99.90;;;;;;5377513;26;20264;-87
2024/04/16 08:30:53;;;;;;;13.70;1.50;;;7.30;99.90;;;;;;5376006;26;20302;-86
2024/04/16 08:33:22;;;;;;;13.55;1.83;;;7.40;99.90;;;;;;5376644;26;20211;-86
2024/04/16 08:35:51;;;;;;;12.32;1.17;;;7.50;99.90;;;;;;5376069;26;20244;-86
2024/04/16 08:38:18;;;;;;;15.35;1.70;;;7.60;99.90;;;;;;5378618;26;20243;-87
2024/04/16 08:40:47;;;;;;;16.33;1.83;;;7.60;99.90;;;;;;5378502;26;20224;-86
2024/04/16 08:43:13;;;;;;;15.55;2.30;;;7.80;99.90;;;;;;5376452;26;20269;-87
2024/04/16 08:45:43;;;;;;;14.15;2.08;;;7.80;99.90;;;;;;5376620;26;20243;-87
2024/04/16 08:48:09;;;;;;;13.25;1.40;;;7.90;99.90;;;;;;5376389;26;20228;-87
2024/04/16 08:50:36;;;;;;;13.48;1.60;;;7.90;99.90;;;;;;5377995;26;20226;-86
2024/04/16 08:53:03;;;;;;;12.50;1.30;;;8.00;99.90;;;;;;5378219;26;20211;-87
2024/04/16 08:55:30;;;;;;;15.25;2.05;;;8.00;99.90;;;;;;5378516;26;20259;-88
2024/04/16 08:57:56;;;;;;;16.20;1.80;;;8.10;99.90;;;;;;5378462;26;20204;-87
2024/04/16 09:00:22;;;;;;;16.97;2.10;;;8.10;99.90;;;;;;5378421;26;20320;-88
2024/04/16 09:02:50;;;;;;;20.90;1.98;;;8.20;99.90;;;;;;5377153;26;20221;-86
2024/04/16 09:05:17;;;;;;;18.00;1.75;;;8.20;99.90;;;;;;5376103;26;20283;-86
2024/04/16 09:07:42;;;;;;;13.65;1.63;;;8.20;99.90;;;;;;5377539;26;20350;-87
2024/04/16 09:10:20;;;;;;;13.57;2.10;;;8.30;99.90;;;;;;5377720;26;20227;-87
2024/04/16 09:12:47;;;;;;;14.25;1.77;;;8.30;99.90;;;;;;5375598;26;20205;-87
2024/04/16 09:15:13;;;;;;;14.00;1.65;;;8.40;99.90;;;;;;5377490;26;20243;-86
2024/04/16 09:17:49;;;;;;;15.05;2.22;;;8.50;99.90;;;;;;5377590;26;20210;-87
2024/04/16 09:20:20;;;;;;;15.35;2.10;;;8.50;99.90;;;;;;5377154;26;20242;-87
2024/04/16 09:22:50;;;;;;;14.68;1.88;;;8.50;99.90;;;;;;5375594;26;20239;-86
2024/04/16 09:25:20;;;;;;;13.68;1.73;;;8.50;99.90;;;;;;5376784;26;20276;-86
2024/04/16 09:27:50;;;;;;;14.98;1.67;;;8.60;99.90;;;;;;5377574;26;20208;-86
2024/04/16 09:30:16;;;;;;;13.95;1.70;;;8.70;99.90;;;;;;5376976;26;20224;-86
2024/04/16 09:32:44;;;;;;;15.60;2.30;;;8.80;99.90;;;;;;5374130;26;20263;-86
2024/04/16 09:35:10;;;;;;;14.35;1.58;;;8.80;99.90;;;;;;5378592;26;20220;-85
2024/04/16 09:37:36;;;;;;;14.00;1.97;;;8.90;99.90;;;;;;5384163;26;20208;-86
2024/04/16 09:40:01;;;;;;;15.60;2.00;;;9.10;99.90;;;;;;5381901;26;20602;-86
2024/04/16 09:42:28;;;;;;;15.20;1.50;;;9.40;99.90;;;;;;5384206;26;20211;-86
2024/04/16 09:44:58;;;;;;;13.77;1.70;;;9.50;99.90;;;;;;5384372;26;20207;-87
2024/04/16 09:47:25;;;;;;;16.17;1.90;;;9.50;99.90;;;;;;5382825;26;20227;-87
2024/04/16 09:49:54;;;;;;;19.50;1.92;;;9.50;99.90;;;;;;5384220;26;20224;-87
2024/04/16 09:52:20;;;;;;;15.52;2.35;;;9.50;99.90;;;;;;5384625;26;20273;-87
2024/04/16 09:54:48;;;;;;;13.95;1.45;;;9.50;99.90;;;;;;5384247;26;20219;-87
2024/04/16 09:57:15;;;;;;;15.95;1.90;;;9.60;99.90;;;;;;5382680;26;20227;-86
2024/04/16 09:59:42;;;;;;;13.70;1.42;;;9.70;99.90;;;;;;5440747;21;20272;-86
2024/04/16 10:02:11;;;;;;;16.95;1.98;;;9.80;99.90;;;;;;5397605;26;20381;-85
2024/04/16 10:04:37;;;;;;;14.32;1.50;;;10.00;99.90;;;;;;5397747;26;20222;-85
2024/04/16 10:07:03;;;;;;;13.13;1.50;;;10.20;99.90;;;;;;5429820;26;20210;-85
2024/04/16 10:09:30;;;;;;;14.57;1.33;;;10.30;99.90;;;;;;5398127;26;21020;-85
2024/04/16 10:11:56;;;;;;;14.15;2.08;;;10.40;99.90;;;;;;5428920;26;20206;-86
2024/04/16 10:14:23;;;;;;;14.50;1.42;;;10.50;99.90;;;;;;5429632;26;20244;-85
2024/04/16 10:16:50;;;;;;;12.95;1.25;;;10.50;99.90;;;;;;5429334;26;20210;-85
2024/04/16 10:19:26;;;;;;;16.40;2.10;;;10.60;99.90;;;;;;5397475;26;20276;-85
2024/04/16 10:21:52;;;;;;;12.63;1.30;;;10.70;99.90;;;;;;5396760;26;20217;-84
2024/04/16 10:24:19;;;;;;;13.67;1.20;;;11.00;99.90;;;;;;5427947;26;20256;-85
2024/04/16 10:26:47;;;;;;;18.45;2.10;;;11.30;99.90;;;;;;5397235;26;20213;-85
2024/04/16 10:29:17;;;;;;;15.52;1.55;;;11.50;99.90;;;;;;5429533;26;20210;-85
2024/04/16 10:31:49;;;;;;;16.55;1.55;;;11.70;99.90;;;;;;5429328;26;20321;-86
2024/04/16 10:34:28;;;;;;;14.32;1.70;;;11.60;88.70;;;;;;5428700;26;20248;-85
2024/04/16 10:36:56;;;;;;;12.80;1.40;;;11.60;76.40;;;;;;5396844;26;20206;-85
2024/04/16 10:39:32;;;;;;;21.58;1.55;;;11.50;65.70;;;;;;5428229;26;20206;-85
2024/04/16 10:42:03;;;;;;;13.60;1.30;;;11.20;48.50;;;;;;5428406;26;20248;-85
2024/04/16 10:44:29;;;;;;;14.77;1.45;;;11.10;44.40;;;;;;5428196;26;20284;-84
2024/04/16 10:46:57;;;;;;;19.15;2.38;;;11.00;49.10;;;;;;5425115;26;20560;-85
2024/04/16 10:49:27;;;;;;;13.25;1.17;;;10.80;64.00;;;;;;5425624;26;20246;-85
2024/04/16 10:51:53;;;;;;;15.90;1.15;;;10.80;37.00;;;;;;5424427;26;20266;-84
2024/04/16 10:54:20;;;;;;;14.13;1.17;;;10.90;51.60;;;;;;5424271;26;20222;-85
2024/04/16 10:56:48;;;;;;;15.90;1.60;;;11.00;45.10;;;;;;5392166;26;20236;-85
2024/04/16 10:59:17;;;;;;;13.50;2.05;;;11.10;46.90;;;;;;5424734;26;20610;-85
2024/04/16 11:01:44;;;;;;;14.57;1.48;;;11.10;33.60;;;;;;5424375;26;20701;-85
2024/04/16 11:04:14;;;;;;;14.85;1.42;;;11.20;38.10;;;;;;5392869;26;20247;-85
2024/04/16 11:06:40;;;;;;;14.88;2.40;;;11.30;28.40;;;;;;5392823;26;20263;-85
2024/04/16 11:09:07;;;;;;;13.60;1.58;;;11.40;32.10;;;;;;5423370;26;20319;-85
2024/04/16 11:11:34;;;;;;;20.58;1.40;;;11.30;28.30;;;;;;5423188;26;20222;-85
2024/04/16 11:14:00;;;;;;;13.43;1.40;;;11.40;35.80;;;;;;5392179;26;20788;-85
2024/04/16 11:16:27;;;;;;;13.45;1.17;;;11.40;26.50;;;;;;5423463;26;20262;-86
2024/04/16 11:18:53;;;;;;;13.50;1.38;;;11.30;8.10;;;;;;5423697;26;20218;-85
2024/04/16 11:21:21;;;;;;;14.73;1.65;;;11.20;7.20;;;;;;5392722;26;20290;-83
2024/04/16 11:23:57;;;;;;;21.23;1.83;;;11.10;10.80;;;;;;5423470;26;20206;-83
2024/04/16 11:26:23;;;;;;;13.70;1.25;;;11.10;22.60;;;;;;5392440;26;20233;-84
2024/04/16 11:28:52;;;;;;;14.83;1.57;;;11.10;5.80;;;;;;5392018;26;20235;-85
2024/04/16 11:31:18;;;;;;;18.67;1.50;;;11.20;1.00;;;;;;5392636;26;20521;-85
2024/04/16 11:33:44;;;;;;;18.80;1.95;;;11.20;7.60;;;;;;5392492;26;20266;-84
2024/04/16 11:36:10;;;;;;;15.05;1.88;;;11.20;1.00;;;;;;5424005;26;20611;-84
2024/04/16 11:38:37;;;;;;;14.57;1.75;;;11.20;1.00;;;;;;5422293;26;20210;-85
2024/04/16 11:41:03;;;;;;;16.83;1.73;;;11.10;14.00;;;;;;5422599;26;20219;-84
2024/04/16 11:43:30;;;;;;;14.15;1.77;;;11.00;41.40;;;;;;5391298;26;20340;-85
2024/04/16 11:46:00;;;;;;;18.08;2.08;;;10.80;70.20;;;;;;5423154;26;20256;-85
2024/04/16 11:48:25;;;;;;;16.63;3.28;;;10.80;91.70;;;;;;5423137;26;20210;-86
2024/04/16 11:50:51;;;;;;;15.23;1.90;;;10.60;98.70;;;;;;5422854;26;20219;-87
2024/04/16 11:53:17;;;;;;;13.50;1.60;;;10.50;99.90;;;;;;5422930;26;20221;-86
2024/04/16 11:55:43;;;;;;;12.63;0.90;;;10.00;99.90;;;;;;5422352;26;20218;-88
2024/04/16 11:58:09;;;;;;;16.60;1.70;;;9.60;99.90;;;;;;5421955;26;21035;-87
2024/04/16 12:00:35;;;;;;;13.17;1.30;;;8.90;99.90;;;;;;5333539;26;20226;-86
2024/04/16 12:03:11;;;;;;;13.17;0.93;;;8.70;99.90;;;;;;5423433;26;20428;-87
2024/04/16 12:05:37;;;;;;;13.73;1.02;;;8.50;99.90;;;;;;5423770;26;20207;-88
2024/04/16 12:08:05;;;;;;;16.30;1.13;;;8.50;99.90;;;;;;5392963;26;20214;-86
2024/04/16 12:10:54;;;;;;;12.27;0.90;;;8.40;99.90;;;;;;5423530;26;20277;-87
2024/04/16 12:13:20;;;;;;;12.90;1.10;;;8.40;99.90;;;;;;5392073;26;20253;-87
2024/04/16 12:15:46;;;;;;;12.83;1.10;;;8.40;99.90;;;;;;5392041;26;20679;-87
2024/04/16 12:18:11;;;;;;;12.37;1.10;;;8.30;99.90;;;;;;5423009;26;20285;-86
2024/04/16 12:20:37;;;;;;;12.17;0.97;;;8.50;99.90;;;;;;5422884;26;20693;-87
2024/04/16 12:23:03;;;;;;;21.60;1.60;;;8.60;99.90;;;;;;5422541;26;20256;-87
2024/04/16 12:25:29;;;;;;;13.83;1.13;;;8.70;99.90;;;;;;5423048;26;20339;-88
2024/04/16 12:27:54;;;;;;;13.70;1.20;;;8.60;99.90;;;;;;5391228;26;20444;-87
2024/04/16 12:30:20;;;;;;;12.47;1.10;;;8.60;99.90;;;;;;5422657;26;20218;-86
2024/04/16 12:32:45;;;;;;;13.73;1.13;;;8.70;99.90;;;;;;5391058;26;20214;-87
2024/04/16 12:35:11;;;;;;;14.07;0.90;;;9.00;99.90;;;;;;5422101;26;20258;-85
2024/04/16 12:37:37;;;;;;;13.10;1.37;;;9.40;99.90;;;;;;5421703;26;20590;-86
2024/04/16 12:40:03;;;;;;;12.33;1.10;;;9.70;99.90;;;;;;5421517;26;20222;-85
2024/04/16 12:42:28;;;;;;;15.70;1.20;;;9.90;99.90;;;;;;5421334;26;20209;-86
2024/04/16 12:44:55;;;;;;;14.87;1.40;;;10.10;99.90;;;;;;5421469;26;20487;-85